Time;durP1;ratioP1;P1;durP2;ratioP2;P2;SDS_P1;SDS_P2;PMS_P1;PMS_P2;Temp;Humidity;BMP_temperature;BMP_pressure;BME280_temperature;BME280_humidity;BME280_pressure;Samples;Min_cycle;Max_cycle;Signal;HPM_P1;HPM_P2
2022/04/20 00:01:02;;;;;;;6.40;4.70;;;12.60;1.00;;;;;;5093741;28;20212;-71
2022/04/20 00:03:28;;;;;;;5.10;4.60;;;12.50;1.00;;;;;;5093452;28;20172;-71
2022/04/20 00:05:53;;;;;;;7.70;4.20;;;12.50;1.00;;;;;;5093149;28;20175;-71
2022/04/20 00:08:19;;;;;;;4.60;4.20;;;12.50;1.00;;;;;;5075746;28;20176;-71
2022/04/20 00:10:45;;;;;;;5.03;4.33;;;12.40;1.00;;;;;;5093559;28;20247;-71
2022/04/20 00:13:11;;;;;;;4.77;4.37;;;12.40;1.00;;;;;;5092611;28;20198;-71
2022/04/20 00:15:36;;;;;;;4.57;4.07;;;12.40;1.00;;;;;;5093404;28;20175;-71
2022/04/20 00:18:02;;;;;;;5.40;4.87;;;12.40;1.00;;;;;;5093355;28;20184;-70
2022/04/20 00:20:29;;;;;;;6.90;4.33;;;12.30;1.00;;;;;;5093006;28;20211;-70
2022/04/20 00:22:55;;;;;;;4.53;4.13;;;12.20;1.00;;;;;;5074866;28;20172;-70
2022/04/20 00:25:21;;;;;;;4.80;4.40;;;12.10;1.00;;;;;;5093215;28;20172;-71
2022/04/20 00:27:46;;;;;;;4.43;4.13;;;12.10;1.00;;;;;;5093418;28;20241;-71
2022/04/20 00:30:12;;;;;;;6.10;4.17;;;12.10;1.00;;;;;;5075025;28;20639;-70
2022/04/20 00:32:39;;;;;;;8.00;4.60;;;12.10;1.00;;;;;;5093010;28;20210;-70
2022/04/20 00:35:06;;;;;;;7.80;4.40;;;12.10;1.00;;;;;;5092702;28;20176;-70
2022/04/20 00:37:33;;;;;;;5.50;4.70;;;12.00;1.00;;;;;;5093425;28;20168;-70
2022/04/20 00:39:59;;;;;;;7.00;4.53;;;12.00;1.00;;;;;;5092996;28;20220;-70
2022/04/20 00:42:27;;;;;;;5.37;4.50;;;12.00;1.00;;;;;;5093287;28;20232;-70
2022/04/20 00:44:54;;;;;;;5.00;4.60;;;11.90;1.00;;;;;;5093197;28;20176;-70
2022/04/20 00:47:20;;;;;;;11.13;4.93;;;11.90;1.00;;;;;;5092718;28;20191;-70
2022/04/20 00:49:47;;;;;;;6.77;4.33;;;11.90;1.00;;;;;;5093149;28;20210;-70
2022/04/20 00:52:13;;;;;;;10.23;4.67;;;11.80;1.00;;;;;;5093188;28;20167;-70
2022/04/20 00:54:39;;;;;;;5.37;4.87;;;11.90;1.00;;;;;;5093024;28;20176;-70
2022/04/20 00:57:05;;;;;;;5.27;4.50;;;11.80;1.00;;;;;;5092851;28;20242;-70
2022/04/20 00:59:33;;;;;;;5.27;4.80;;;11.80;12.40;;;;;;5092844;28;20207;-70
2022/04/20 01:02:00;;;;;;;5.37;4.60;;;11.70;51.60;;;;;;5092514;28;20176;-70
2022/04/20 01:04:26;;;;;;;4.60;4.20;;;11.70;12.60;;;;;;5074707;28;20207;-70
2022/04/20 01:06:52;;;;;;;6.37;4.77;;;11.70;1.00;;;;;;5093066;28;20619;-70
2022/04/20 01:09:18;;;;;;;4.87;4.03;;;11.70;1.00;;;;;;5092821;28;20199;-70
2022/04/20 01:11:44;;;;;;;5.97;4.20;;;11.70;1.00;;;;;;5074758;28;20207;-70
2022/04/20 01:14:10;;;;;;;5.53;4.93;;;11.70;67.20;;;;;;5092837;28;20267;-70
2022/04/20 01:16:36;;;;;;;4.97;4.33;;;11.60;44.80;;;;;;5092547;28;20260;-70
2022/04/20 01:19:03;;;;;;;5.87;4.43;;;11.60;20.40;;;;;;5092612;28;20192;-70
2022/04/20 01:21:29;;;;;;;5.73;4.50;;;11.60;25.80;;;;;;5092811;28;20192;-70
2022/04/20 01:23:55;;;;;;;4.80;4.40;;;11.50;97.40;;;;;;5092794;28;20206;-70
2022/04/20 01:26:21;;;;;;;6.13;4.43;;;11.50;99.90;;;;;;5096430;28;20690;-70
2022/04/20 01:28:47;;;;;;;7.73;5.07;;;11.50;99.90;;;;;;5096234;28;20255;-70
2022/04/20 01:31:15;;;;;;;6.23;4.67;;;11.50;99.90;;;;;;5095803;28;20172;-70
2022/04/20 01:33:41;;;;;;;11.47;4.60;;;11.50;99.90;;;;;;5078221;28;20176;-70
2022/04/20 01:36:08;;;;;;;11.20;5.27;;;11.40;99.90;;;;;;5096705;28;20611;-70
2022/04/20 01:38:35;;;;;;;6.07;5.07;;;11.40;99.90;;;;;;5096217;28;20223;-70
2022/04/20 01:41:00;;;;;;;5.57;4.97;;;11.40;99.90;;;;;;5096277;28;20211;-69
2022/04/20 01:43:26;;;;;;;5.73;5.13;;;11.40;99.90;;;;;;5096185;28;20172;-70
2022/04/20 01:45:51;;;;;;;7.80;5.10;;;11.30;99.90;;;;;;5095749;28;20701;-70
2022/04/20 01:48:17;;;;;;;5.33;4.87;;;11.30;99.90;;;;;;5078020;28;20187;-71
2022/04/20 01:53:27;;;;;;;32.67;7.23;;;11.30;99.90;;;;;;5096204;28;20242;-70
2022/04/20 01:55:53;;;;;;;11.97;5.53;;;11.30;99.90;;;;;;5077788;28;20172;-71
2022/04/20 01:58:18;;;;;;;25.83;7.13;;;11.30;99.90;;;;;;5096055;28;20187;-70
2022/04/20 02:00:44;;;;;;;5.80;5.27;;;11.30;99.90;;;;;;5095549;28;20254;-70
2022/04/20 02:03:10;;;;;;;13.47;4.80;;;11.30;99.90;;;;;;5077908;28;20317;-70
2022/04/20 02:05:35;;;;;;;9.73;5.30;;;11.20;99.90;;;;;;5095842;28;20199;-70
2022/04/20 02:08:01;;;;;;;16.13;6.03;;;11.20;1.00;;;;;;5095939;28;20179;-70
2022/04/20 02:10:27;;;;;;;5.77;4.73;;;11.10;1.00;;;;;;5096181;28;20176;-70
2022/04/20 02:12:52;;;;;;;5.13;4.63;;;11.10;1.00;;;;;;5095798;28;20581;-70
2022/04/20 02:15:18;;;;;;;8.93;4.80;;;11.00;1.00;;;;;;5095117;28;20259;-70
2022/04/20 02:17:43;;;;;;;5.50;4.87;;;11.00;1.00;;;;;;5095939;28;20237;-70
2022/04/20 02:20:10;;;;;;;9.97;4.90;;;11.00;1.00;;;;;;5095746;28;20647;-70
2022/04/20 02:22:35;;;;;;;8.40;5.27;;;10.90;1.00;;;;;;5095611;28;20254;-70
2022/04/20 02:25:01;;;;;;;6.33;4.63;;;10.90;1.00;;;;;;5077472;28;20262;-69
2022/04/20 02:27:27;;;;;;;5.33;4.83;;;10.80;1.00;;;;;;5095395;28;20168;-70
2022/04/20 02:29:52;;;;;;;5.20;4.70;;;10.80;47.30;;;;;;5095026;28;20646;-70
2022/04/20 02:32:18;;;;;;;5.63;5.03;;;10.70;99.90;;;;;;5095371;28;20176;-70
2022/04/20 02:34:44;;;;;;;5.87;5.00;;;10.70;99.90;;;;;;5095056;28;20176;-70
2022/04/20 02:37:10;;;;;;;5.30;4.83;;;10.70;99.90;;;;;;5094336;28;20266;-70
2022/04/20 02:39:36;;;;;;;7.03;4.80;;;10.60;99.90;;;;;;5095179;28;20207;-71
2022/04/20 02:42:04;;;;;;;7.93;5.00;;;10.60;99.90;;;;;;5094814;28;20176;-70
2022/04/20 02:44:30;;;;;;;4.60;4.20;;;10.60;1.00;;;;;;5094504;28;20254;-70
2022/04/20 02:46:55;;;;;;;5.20;4.73;;;10.60;99.90;;;;;;5095424;28;20184;-70
2022/04/20 02:49:21;;;;;;;8.47;5.47;;;10.60;99.90;;;;;;5094818;28;20530;-71
2022/04/20 02:51:47;;;;;;;10.10;5.27;;;10.50;1.00;;;;;;5094852;28;20172;-70
2022/04/20 02:54:12;;;;;;;7.70;4.70;;;10.50;1.00;;;;;;5094961;28;20172;-70
2022/04/20 02:56:38;;;;;;;5.50;4.87;;;10.50;1.00;;;;;;5094350;28;20222;-71
2022/04/20 02:59:04;;;;;;;6.63;5.50;;;10.50;1.00;;;;;;5076043;28;20234;-70
2022/04/20 03:01:30;;;;;;;4.60;4.20;;;10.40;1.00;;;;;;5094758;28;20180;-71
2022/04/20 03:03:59;;;;;;;4.90;4.50;;;10.40;1.00;;;;;;5076655;28;20168;-70
2022/04/20 03:06:28;;;;;;;5.73;5.07;;;10.40;1.00;;;;;;5094684;28;20204;-70
2022/04/20 03:08:54;;;;;;;6.60;4.23;;;10.40;99.90;;;;;;5094606;28;20247;-69
2022/04/20 03:11:21;;;;;;;5.10;4.60;;;10.30;99.90;;;;;;5094176;28;20199;-69
2022/04/20 03:13:47;;;;;;;4.90;4.50;;;10.20;1.00;;;;;;5094072;28;20167;-70
2022/04/20 03:16:14;;;;;;;5.80;4.80;;;10.20;1.00;;;;;;5094540;28;20176;-68
2022/04/20 03:18:39;;;;;;;6.07;5.10;;;10.30;99.90;;;;;;5094019;28;20172;-69
2022/04/20 03:21:05;;;;;;;6.90;5.10;;;10.30;99.30;;;;;;5094315;28;20649;-69
2022/04/20 03:23:31;;;;;;;5.93;4.80;;;10.30;99.90;;;;;;5094377;28;20662;-69
2022/04/20 03:25:57;;;;;;;6.27;4.60;;;10.30;99.90;;;;;;5093810;28;20175;-70
2022/04/20 03:28:23;;;;;;;11.00;4.90;;;10.30;99.90;;;;;;5094108;28;20507;-70
2022/04/20 03:30:49;;;;;;;8.57;5.07;;;10.20;99.90;;;;;;5075928;28;20168;-70
2022/04/20 03:33:15;;;;;;;4.83;4.43;;;10.20;99.90;;;;;;5093842;28;20538;-70
2022/04/20 03:35:41;;;;;;;9.40;5.30;;;10.20;99.90;;;;;;5093941;28;20187;-70
2022/04/20 03:38:07;;;;;;;5.13;4.70;;;10.20;99.90;;;;;;5094244;28;20192;-70
2022/04/20 03:40:33;;;;;;;5.13;4.63;;;10.10;99.90;;;;;;5093807;28;20666;-70
2022/04/20 03:42:59;;;;;;;6.37;5.10;;;10.10;1.00;;;;;;5093072;28;20222;-70
2022/04/20 03:45:24;;;;;;;7.67;5.17;;;10.10;1.00;;;;;;5093749;28;20179;-71
2022/04/20 03:47:50;;;;;;;4.87;4.40;;;10.10;1.00;;;;;;5093563;28;20164;-70
2022/04/20 03:50:16;;;;;;;7.07;5.20;;;10.00;1.00;;;;;;5093786;28;20579;-71
2022/04/20 03:52:42;;;;;;;6.47;4.83;;;10.00;68.70;;;;;;5093437;28;20178;-70
2022/04/20 03:55:08;;;;;;;8.57;5.27;;;10.00;1.00;;;;;;5092847;28;20617;-70
2022/04/20 03:57:34;;;;;;;8.93;4.97;;;10.00;99.90;;;;;;5071329;28;20232;-71
2022/04/20 03:59:59;;;;;;;7.10;4.50;;;10.00;99.90;;;;;;5073393;28;20215;-70
2022/04/20 04:02:25;;;;;;;5.77;4.33;;;9.90;99.90;;;;;;5073426;28;20168;-71
2022/04/20 04:04:50;;;;;;;5.63;4.80;;;9.90;99.90;;;;;;5072660;28;20537;-71
2022/04/20 04:07:16;;;;;;;6.80;4.63;;;10.00;1.00;;;;;;5072893;28;20183;-70
2022/04/20 04:09:42;;;;;;;5.20;4.67;;;10.00;1.00;;;;;;5072674;28;20168;-70
2022/04/20 04:12:09;;;;;;;5.03;4.60;;;10.00;47.10;;;;;;5072134;28;20195;-70
2022/04/20 04:14:39;;;;;;;6.63;4.77;;;10.00;1.00;;;;;;5073331;28;20173;-70
2022/04/20 04:17:05;;;;;;;6.97;4.63;;;9.90;1.00;;;;;;5073029;28;20172;-70
2022/04/20 04:19:30;;;;;;;5.20;4.20;;;9.90;1.00;;;;;;5073350;28;20265;-70
2022/04/20 04:21:56;;;;;;;6.03;4.83;;;9.90;99.90;;;;;;5071215;28;20209;-70
2022/04/20 04:24:34;;;;;;;8.53;4.90;;;9.80;99.90;;;;;;5071400;28;20208;-70
2022/04/20 04:27:00;;;;;;;5.73;4.57;;;9.80;99.90;;;;;;5072322;28;20187;-70
2022/04/20 04:29:26;;;;;;;6.93;4.70;;;9.80;99.90;;;;;;5073125;28;20180;-70
2022/04/20 04:31:52;;;;;;;5.93;5.27;;;9.80;99.90;;;;;;5072145;28;20192;-70
2022/04/20 04:34:18;;;;;;;5.20;4.70;;;9.80;99.90;;;;;;5072782;28;20204;-69
2022/04/20 04:36:44;;;;;;;8.93;5.53;;;9.80;99.90;;;;;;5072847;28;20628;-70
2022/04/20 04:39:09;;;;;;;6.40;5.57;;;9.90;99.90;;;;;;5070765;28;20230;-70
2022/04/20 04:41:35;;;;;;;7.63;5.93;;;9.90;99.90;;;;;;5070691;28;20259;-70
2022/04/20 04:44:01;;;;;;;12.67;4.80;;;10.00;1.00;;;;;;5072902;28;20558;-70
2022/04/20 04:49:10;;;;;;;6.67;4.93;;;10.00;1.00;;;;;;5071226;28;20211;-70
2022/04/20 04:51:36;;;;;;;7.93;4.53;;;10.10;1.00;;;;;;5072208;28;20184;-70
2022/04/20 04:54:01;;;;;;;7.70;4.53;;;10.10;99.90;;;;;;5071688;28;20298;-70
2022/04/20 04:56:27;;;;;;;8.33;4.77;;;10.20;1.00;;;;;;5078314;28;20311;-69
2022/04/20 04:58:53;;;;;;;13.63;4.77;;;10.40;1.00;;;;;;5091781;28;20180;-70
2022/04/20 05:01:18;;;;;;;5.13;4.23;;;10.80;1.00;;;;;;5095841;28;20208;-70
2022/04/20 05:03:44;;;;;;;7.70;4.23;;;11.30;99.90;;;;;;5096448;28;20172;-70
2022/04/20 05:06:10;;;;;;;7.53;4.50;;;11.60;5.70;;;;;;5096334;28;20203;-70
2022/04/20 05:08:35;;;;;;;4.93;3.90;;;12.00;1.00;;;;;;5095976;28;20293;-70
2022/04/20 05:11:01;;;;;;;7.70;4.50;;;12.60;1.00;;;;;;5096290;28;20637;-70
2022/04/20 05:13:26;;;;;;;8.63;4.20;;;12.90;1.00;;;;;;5095963;28;20232;-70
2022/04/20 05:15:52;;;;;;;7.20;3.83;;;13.30;1.00;;;;;;5095983;28;20532;-69
2022/04/20 05:18:17;;;;;;;8.27;3.90;;;13.60;99.90;;;;;;5095836;28;20178;-70
2022/04/20 05:20:44;;;;;;;6.90;4.10;;;14.10;99.90;;;;;;5096078;28;20219;-70
2022/04/20 05:23:09;;;;;;;5.83;3.87;;;14.50;99.90;;;;;;5095596;28;20175;-71
2022/04/20 05:25:35;;;;;;;6.77;3.87;;;14.20;99.90;;;;;;5095002;28;20538;-70
2022/04/20 05:28:01;;;;;;;7.67;4.47;;;13.90;99.90;;;;;;5095398;28;20583;-70
2022/04/20 05:30:27;;;;;;;9.53;4.33;;;14.10;99.90;;;;;;5094577;28;20184;-70
2022/04/20 05:32:52;;;;;;;10.03;4.10;;;14.00;99.90;;;;;;5095872;28;20187;-70
2022/04/20 05:35:18;;;;;;;10.83;4.50;;;13.90;99.90;;;;;;5095062;28;20191;-69
2022/04/20 05:43:11;;;;;;;6.00;3.40;;;12.20;1.00;;;;;;5095187;28;20190;-70
2022/04/20 05:45:37;;;;;;;6.97;4.23;;;11.90;1.00;;;;;;5094702;28;20168;-69
2022/04/20 05:48:04;;;;;;;6.47;4.40;;;11.80;1.00;;;;;;5095467;28;20225;-70
2022/04/20 05:50:29;;;;;;;4.53;4.13;;;11.70;1.00;;;;;;5093946;28;20357;-70
2022/04/20 05:52:55;;;;;;;6.03;3.83;;;11.60;1.00;;;;;;5093625;28;20576;-69
2022/04/20 05:55:20;;;;;;;13.47;4.77;;;11.60;1.00;;;;;;5094844;28;20164;-70
2022/04/20 05:57:47;;;;;;;6.70;3.80;;;11.50;1.00;;;;;;5094358;28;20672;-70
2022/04/20 06:00:14;;;;;;;4.27;3.87;;;11.40;1.00;;;;;;5075692;28;20292;-70
2022/04/20 06:02:40;;;;;;;7.47;4.00;;;11.30;1.00;;;;;;5094692;28;20172;-71
2022/04/20 06:05:07;;;;;;;7.67;4.30;;;11.30;26.90;;;;;;5093730;28;20171;-70
2022/04/20 06:07:33;;;;;;;5.63;4.10;;;11.50;17.90;;;;;;5093548;28;20174;-70
2022/04/20 06:09:59;;;;;;;8.50;4.20;;;11.80;1.00;;;;;;5075973;28;20698;-70
2022/04/20 06:12:24;;;;;;;7.23;4.17;;;11.60;1.00;;;;;;5092894;28;20635;-70
2022/04/20 06:14:50;;;;;;;10.67;4.40;;;11.70;1.00;;;;;;5093575;28;20168;-70
2022/04/20 06:17:16;;;;;;;6.70;4.20;;;11.60;1.00;;;;;;5093996;28;20610;-70
2022/04/20 06:19:41;;;;;;;8.50;4.00;;;11.80;1.00;;;;;;5075274;28;20225;-70
2022/04/20 06:22:07;;;;;;;4.27;3.87;;;11.80;1.00;;;;;;5093691;28;20156;-70
2022/04/20 06:24:33;;;;;;;6.77;3.80;;;11.40;1.00;;;;;;5093525;28;20221;-70
2022/04/20 06:26:58;;;;;;;5.70;3.80;;;11.50;70.80;;;;;;5102514;28;20639;-71
2022/04/20 06:29:24;;;;;;;5.40;3.87;;;11.50;1.00;;;;;;5112398;27;20171;-70
2022/04/20 06:31:51;;;;;;;5.70;4.10;;;11.70;1.00;;;;;;5113999;28;20634;-70
2022/04/20 06:34:19;;;;;;;5.70;4.17;;;11.70;1.00;;;;;;5106768;28;20159;-71
2022/04/20 06:36:45;;;;;;;4.50;3.30;;;11.90;1.00;;;;;;5113405;28;20171;-70
2022/04/20 06:39:11;;;;;;;7.83;4.03;;;11.80;1.00;;;;;;5112072;28;20199;-70
2022/04/20 06:41:36;;;;;;;4.57;4.17;;;11.80;1.00;;;;;;5093860;28;20316;-69
2022/04/20 06:44:02;;;;;;;8.53;4.53;;;12.00;1.00;;;;;;5113447;28;20171;-71
2022/04/20 06:46:28;;;;;;;11.20;4.80;;;12.20;1.00;;;;;;5108425;28;20175;-70
2022/04/20 06:48:53;;;;;;;6.20;4.30;;;12.40;1.00;;;;;;5095074;28;20172;-70
2022/04/20 06:51:20;;;;;;;6.63;4.37;;;12.40;1.00;;;;;;5091281;28;20221;-71
2022/04/20 06:59:14;;;;;;;6.57;4.40;;;12.50;1.00;;;;;;5112126;28;20224;-71
2022/04/20 07:01:39;;;;;;;8.90;4.37;;;12.50;1.00;;;;;;5111509;28;20187;-70
2022/04/20 07:04:05;;;;;;;4.87;3.90;;;12.60;1.00;;;;;;5112236;28;20191;-70
2022/04/20 07:06:31;;;;;;;5.43;3.77;;;12.60;1.00;;;;;;5111850;28;20660;-70
2022/04/20 07:08:57;;;;;;;8.87;4.60;;;12.50;1.00;;;;;;5111956;28;20198;-70
2022/04/20 07:11:23;;;;;;;6.07;3.93;;;12.50;1.00;;;;;;5113250;28;20570;-70
2022/04/20 07:13:50;;;;;;;7.97;4.40;;;12.40;1.00;;;;;;5112702;28;20163;-70
2022/04/20 07:16:15;;;;;;;7.63;4.70;;;12.50;1.00;;;;;;5113511;28;20182;-71
2022/04/20 07:18:41;;;;;;;5.27;4.57;;;12.70;1.00;;;;;;5113352;28;20174;-71
2022/04/20 07:21:07;;;;;;;9.53;4.30;;;12.60;1.00;;;;;;5112406;28;20751;-70
2022/04/20 07:23:33;;;;;;;6.07;4.33;;;12.80;1.00;;;;;;5112236;28;20178;-70
2022/04/20 07:25:58;;;;;;;5.23;4.20;;;12.80;1.00;;;;;;5112793;28;20648;-70
2022/04/20 07:28:24;;;;;;;5.80;4.73;;;12.80;1.00;;;;;;5113319;28;20282;-70
2022/04/20 07:30:50;;;;;;;8.20;4.37;;;12.80;1.00;;;;;;5113536;28;20179;-71
2022/04/20 07:33:16;;;;;;;5.87;4.60;;;12.80;1.00;;;;;;5112167;28;20185;-70
2022/04/20 07:35:45;;;;;;;8.80;4.60;;;13.00;1.00;;;;;;5111856;28;20630;-70
2022/04/20 07:38:11;;;;;;;10.03;4.40;;;13.30;99.90;;;;;;5112329;28;20187;-70
2022/04/20 07:40:38;;;;;;;9.47;5.00;;;13.30;99.90;;;;;;5112630;28;20242;-70
2022/04/20 07:43:03;;;;;;;7.07;4.50;;;13.20;99.90;;;;;;5112751;28;20240;-70
2022/04/20 07:45:29;;;;;;;5.90;4.30;;;13.10;99.90;;;;;;5111966;28;20175;-71
2022/04/20 07:47:56;;;;;;;6.67;4.50;;;13.20;99.90;;;;;;5112324;28;20171;-71
2022/04/20 07:50:25;;;;;;;6.83;4.37;;;13.30;99.90;;;;;;5110798;28;20232;-71
2022/04/20 07:52:56;;;;;;;4.90;4.27;;;13.20;99.90;;;;;;5111156;28;20179;-71
2022/04/20 07:55:29;;;;;;;4.57;3.90;;;13.20;99.90;;;;;;5111189;28;20270;-71
2022/04/20 07:57:57;;;;;;;6.63;3.93;;;13.50;99.90;;;;;;5090196;28;20415;-71
2022/04/20 08:00:24;;;;;;;8.03;3.93;;;13.20;99.90;;;;;;5090686;28;20678;-70
2022/04/20 08:02:50;;;;;;;4.40;4.10;;;13.30;99.90;;;;;;5082785;28;20241;-71
2022/04/20 08:05:17;;;;;;;6.87;4.20;;;13.80;99.90;;;;;;5088792;28;20301;-72
2022/04/20 08:07:44;;;;;;;6.27;4.33;;;13.80;99.90;;;;;;5081106;28;20184;-72
2022/04/20 08:10:11;;;;;;;7.17;4.47;;;13.80;99.90;;;;;;5088696;28;20466;-72
2022/04/20 08:12:42;;;;;;;4.97;3.63;;;14.10;99.90;;;;;;5089937;28;20183;-72
2022/04/20 08:15:09;;;;;;;8.23;4.50;;;13.80;99.90;;;;;;5106583;28;20176;-72
2022/04/20 08:17:36;;;;;;;5.90;3.87;;;14.10;99.90;;;;;;5080467;28;20211;-73
2022/04/20 08:20:04;;;;;;;7.53;4.07;;;14.50;99.90;;;;;;5091727;28;20697;-72
2022/04/20 08:22:30;;;;;;;8.27;4.60;;;15.00;99.90;;;;;;5086298;28;20240;-71
2022/04/20 08:24:56;;;;;;;5.53;4.60;;;14.90;99.90;;;;;;5091848;28;20266;-71
2022/04/20 08:27:22;;;;;;;7.67;4.40;;;15.60;99.90;;;;;;5090071;28;20260;-72
2022/04/20 08:29:49;;;;;;;6.10;4.00;;;15.90;99.90;;;;;;5092296;28;20167;-72
2022/04/20 08:32:18;;;;;;;4.83;4.27;;;16.10;99.90;;;;;;5091178;28;20175;-72
2022/04/20 08:34:44;;;;;;;5.23;4.10;;;16.30;99.90;;;;;;5089373;28;20172;-73
2022/04/20 08:37:10;;;;;;;8.53;4.37;;;16.60;99.90;;;;;;5091250;28;20186;-75
2022/04/20 08:39:38;;;;;;;4.67;3.87;;;16.70;99.90;;;;;;5091475;28;20218;-75
2022/04/20 08:42:06;;;;;;;5.37;4.00;;;16.50;99.90;;;;;;5091700;28;20172;-76
2022/04/20 08:44:36;;;;;;;6.27;4.13;;;17.60;99.90;;;;;;5090669;28;20282;-76
2022/04/20 08:47:02;;;;;;;4.50;4.00;;;18.50;99.90;;;;;;5090931;28;20172;-77
2022/04/20 08:49:28;;;;;;;5.83;3.80;;;18.20;99.90;;;;;;5086735;28;20740;-76
2022/04/20 08:54:39;;;;;;;6.20;4.30;;;18.00;99.90;;;;;;5091403;28;20263;-77
2022/04/20 08:57:19;;;;;;;7.20;4.28;;;18.60;99.90;;;;;;5102655;28;20214;-77
2022/04/20 08:59:49;;;;;;;11.27;4.88;;;19.00;99.90;;;;;;5096311;28;20214;-77
2022/04/20 09:02:17;;;;;;;4.43;3.55;;;19.80;99.90;;;;;;5111739;28;20580;-77
2022/04/20 09:04:43;;;;;;;4.88;3.55;;;19.70;99.90;;;;;;5112130;28;20698;-77
2022/04/20 09:07:10;;;;;;;6.57;3.83;;;19.50;99.90;;;;;;5111268;28;20225;-77
2022/04/20 09:09:36;;;;;;;4.18;3.78;;;19.30;99.90;;;;;;5095182;28;20175;-77
2022/04/20 09:12:12;;;;;;;6.15;4.15;;;19.30;99.90;;;;;;5112118;28;20185;-77
2022/04/20 09:14:40;;;;;;;9.18;4.40;;;19.80;99.90;;;;;;5111675;28;20206;-77
2022/04/20 09:17:09;;;;;;;4.68;3.97;;;20.40;99.90;;;;;;5092103;28;20171;-77
2022/04/20 09:19:36;;;;;;;6.75;3.80;;;19.80;99.90;;;;;;5091090;28;20245;-78
2022/04/20 09:22:17;;;;;;;3.63;3.33;;;19.80;99.90;;;;;;5093169;28;20171;-77
2022/04/20 09:25:14;;;;;;;7.57;3.95;;;19.60;99.90;;;;;;5093009;28;20238;-77
2022/04/20 09:27:41;;;;;;;3.60;3.30;;;20.00;99.90;;;;;;5095961;28;20184;-76
2022/04/20 09:30:13;;;;;;;5.00;3.78;;;20.70;99.90;;;;;;5111462;28;20179;-78
2022/04/20 09:32:41;;;;;;;3.90;3.50;;;20.30;99.90;;;;;;5111150;28;20205;-77
2022/04/20 09:35:12;;;;;;;4.45;3.45;;;20.30;99.90;;;;;;5111529;28;20167;-77
2022/04/20 09:37:39;;;;;;;5.32;3.17;;;20.90;99.90;;;;;;5091454;28;20189;-78
2022/04/20 09:40:10;;;;;;;3.45;3.10;;;21.30;99.90;;;;;;5110969;28;20195;-78
2022/04/20 09:42:36;;;;;;;3.67;3.38;;;22.10;95.40;;;;;;5108763;28;20166;-77
2022/04/20 09:45:05;;;;;;;3.45;3.20;;;21.10;92.00;;;;;;5110384;28;20172;-78
2022/04/20 09:50:24;;;;;;;3.40;3.10;;;20.00;91.40;;;;;;5114675;28;20899;-76
2022/04/20 09:52:58;;;;;;;6.18;3.28;;;20.10;87.20;;;;;;5114588;28;20212;-78
2022/04/20 09:55:32;;;;;;;5.75;3.75;;;19.70;91.10;;;;;;5113480;28;20246;-78
2022/04/20 09:58:18;;;;;;;4.57;3.33;;;20.20;92.50;;;;;;5114128;28;20214;-77
2022/04/20 10:00:51;;;;;;;4.10;3.70;;;20.10;92.20;;;;;;5115397;28;20281;-76
2022/04/20 10:03:28;;;;;;;3.30;3.00;;;20.20;91.20;;;;;;5114549;28;20236;-78
2022/04/20 10:05:55;;;;;;;5.03;3.70;;;20.20;90.10;;;;;;5114250;28;20173;-76
2022/04/20 10:08:21;;;;;;;5.28;3.50;;;19.60;90.40;;;;;;5115350;28;20228;-77
2022/04/20 10:10:49;;;;;;;5.32;3.35;;;19.50;85.50;;;;;;5095796;28;20171;-77
2022/04/20 10:13:15;;;;;;;3.88;3.58;;;19.60;87.50;;;;;;5113928;28;20632;-78
2022/04/20 10:18:29;;;;;;;4.40;3.67;;;19.40;90.30;;;;;;5114463;28;20633;-77
2022/04/20 10:21:00;;;;;;;3.72;3.38;;;19.30;91.80;;;;;;5114073;28;20263;-77
2022/04/20 10:23:29;;;;;;;6.72;3.60;;;19.90;90.00;;;;;;5112626;28;20265;-76
2022/04/20 10:25:55;;;;;;;4.03;3.70;;;19.00;90.40;;;;;;5114833;28;20167;-77
2022/04/20 10:28:46;;;;;;;3.95;3.60;;;19.20;92.90;;;;;;5113756;28;20606;-77
2022/04/20 10:31:38;;;;;;;3.30;3.10;;;18.90;92.40;;;;;;5114760;28;20211;-77
2022/04/20 10:34:04;;;;;;;3.45;3.13;;;18.60;92.40;;;;;;5114137;28;20166;-77
2022/04/20 10:36:32;;;;;;;4.47;3.78;;;18.90;93.60;;;;;;5114231;28;20183;-76
2022/04/20 10:39:22;;;;;;;3.75;3.45;;;19.20;92.20;;;;;;5114209;28;20191;-76
2022/04/20 10:42:17;;;;;;;4.03;3.63;;;18.80;93.70;;;;;;5109600;28;20211;-80
2022/04/20 10:45:06;;;;;;;9.23;4.18;;;18.90;92.50;;;;;;5112364;28;20641;-78
2022/04/20 10:47:42;;;;;;;5.95;4.30;;;19.40;93.40;;;;;;5095365;28;20172;-78
2022/04/20 10:50:14;;;;;;;4.47;4.05;;;19.20;93.50;;;;;;5114570;28;20594;-78
2022/04/20 10:52:41;;;;;;;5.35;4.10;;;19.60;91.40;;;;;;5113612;28;20179;-79
2022/04/20 10:55:11;;;;;;;5.85;3.85;;;19.60;92.80;;;;;;5113419;28;20619;-78
2022/04/20 10:57:39;;;;;;;3.50;3.30;;;19.60;89.90;;;;;;5113008;28;20227;-78
2022/04/20 11:00:20;;;;;;;7.65;3.35;;;19.40;91.90;;;;;;5113891;28;20203;-78
2022/04/20 11:02:52;;;;;;;8.02;3.80;;;19.40;90.30;;;;;;5113450;28;20197;-78
2022/04/20 11:05:22;;;;;;;4.32;3.60;;;19.20;91.10;;;;;;5094870;28;20265;-78
2022/04/20 11:08:01;;;;;;;5.00;3.88;;;18.70;90.50;;;;;;5114259;28;20164;-79
2022/04/20 11:10:28;;;;;;;4.15;3.75;;;18.50;91.00;;;;;;5095521;28;20170;-78
2022/04/20 11:19:08;;;;;;;3.67;3.38;;;18.50;91.80;;;;;;5113444;28;20220;-78
2022/04/20 11:21:34;;;;;;;6.13;3.33;;;18.80;90.80;;;;;;5113918;28;20179;-78
2022/04/20 11:24:05;;;;;;;3.50;3.20;;;18.60;90.80;;;;;;5113256;28;20167;-78
2022/04/20 11:26:39;;;;;;;4.50;3.40;;;18.50;92.60;;;;;;5112297;28;20168;-77
2022/04/20 11:29:17;;;;;;;3.70;3.33;;;18.60;92.10;;;;;;5113929;28;20186;-77
2022/04/20 11:32:10;;;;;;;5.25;3.45;;;19.20;90.80;;;;;;5094132;28;20288;-78
2022/04/20 11:34:39;;;;;;;3.90;3.20;;;18.40;90.30;;;;;;5109132;28;20341;-78
2022/04/20 11:37:06;;;;;;;3.83;2.97;;;18.40;91.60;;;;;;5113391;28;20186;-77
2022/04/20 11:39:33;;;;;;;4.10;3.60;;;18.50;90.80;;;;;;5112612;28;20225;-77
2022/04/20 11:42:06;;;;;;;4.07;3.57;;;18.50;91.90;;;;;;5113059;28;20191;-77
2022/04/20 11:44:35;;;;;;;4.45;3.50;;;18.40;92.20;;;;;;5095056;28;20274;-77
2022/04/20 11:47:07;;;;;;;3.70;3.40;;;18.30;91.80;;;;;;5112837;28;20179;-76
2022/04/20 11:49:39;;;;;;;6.15;3.55;;;18.30;92.80;;;;;;5094802;28;20163;-75
2022/04/20 11:52:11;;;;;;;6.50;3.92;;;18.90;93.60;;;;;;5094644;28;20646;-76
2022/04/20 11:54:38;;;;;;;10.68;4.35;;;19.30;91.40;;;;;;5112185;28;20236;-76
2022/04/20 11:57:04;;;;;;;5.88;3.17;;;18.40;91.50;;;;;;5090537;28;20228;-75
2022/04/20 11:59:30;;;;;;;4.40;4.00;;;18.90;86.10;;;;;;5092898;28;20222;-75
2022/04/20 12:01:56;;;;;;;4.37;3.70;;;19.10;88.80;;;;;;5092541;28;20627;-75
2022/04/20 12:04:25;;;;;;;5.40;3.90;;;18.00;91.70;;;;;;5091765;28;20667;-74
2022/04/20 12:06:56;;;;;;;5.03;4.20;;;17.70;94.50;;;;;;5092623;28;20519;-74
2022/04/20 12:09:24;;;;;;;5.50;4.00;;;18.00;95.10;;;;;;5092002;28;20176;-74
2022/04/20 12:11:54;;;;;;;4.60;3.50;;;18.20;94.70;;;;;;5092392;28;20168;-74
2022/04/20 12:14:20;;;;;;;4.70;4.30;;;18.20;99.90;;;;;;5091642;28;20211;-73
2022/04/20 12:16:46;;;;;;;8.20;3.83;;;18.00;94.80;;;;;;5092570;28;20267;-75
2022/04/20 12:19:12;;;;;;;4.63;3.67;;;17.60;99.90;;;;;;5092054;28;20631;-74
2022/04/20 12:21:42;;;;;;;4.57;4.17;;;17.80;94.60;;;;;;5092219;28;20186;-74
2022/04/20 12:24:27;;;;;;;6.17;4.00;;;17.80;97.20;;;;;;5092128;28;20160;-73
2022/04/20 12:26:56;;;;;;;7.53;4.10;;;17.80;97.50;;;;;;5091624;28;20263;-74
2022/04/20 12:29:24;;;;;;;4.40;3.53;;;17.60;97.70;;;;;;5089387;28;20204;-74
2022/04/20 12:31:54;;;;;;;3.73;3.43;;;17.80;96.10;;;;;;5092407;28;20232;-75
2022/04/20 12:34:21;;;;;;;4.30;3.90;;;17.60;96.90;;;;;;5092469;28;20445;-74
2022/04/20 12:36:59;;;;;;;4.13;3.83;;;17.50;97.40;;;;;;5092506;28;20192;-74
2022/04/20 12:39:27;;;;;;;4.57;4.07;;;17.10;99.10;;;;;;5090129;28;20248;-74
2022/04/20 12:41:55;;;;;;;5.10;4.60;;;17.60;99.70;;;;;;5107896;28;20168;-75
2022/04/20 12:44:35;;;;;;;4.67;3.93;;;17.70;99.90;;;;;;5091980;28;20195;-75
2022/04/20 12:47:15;;;;;;;7.07;4.03;;;17.80;97.80;;;;;;5091240;28;20177;-74
2022/04/20 12:49:43;;;;;;;6.97;4.13;;;17.90;98.90;;;;;;5090494;28;20183;-75
2022/04/20 12:52:12;;;;;;;10.97;5.27;;;17.80;98.00;;;;;;5092057;28;20246;-75
2022/04/20 12:54:38;;;;;;;7.53;4.77;;;17.90;98.20;;;;;;5091611;28;20172;-74
2022/04/20 13:03:16;;;;;;;4.63;3.10;;;18.10;99.10;;;;;;5091195;28;20171;-74
2022/04/20 13:05:43;;;;;;;5.03;4.07;;;17.80;97.40;;;;;;5107125;28;20183;-74
2022/04/20 13:08:11;;;;;;;6.93;3.80;;;18.00;98.30;;;;;;5091610;28;20631;-74
2022/04/20 13:10:41;;;;;;;5.37;3.80;;;17.70;97.30;;;;;;5082320;28;20188;-74
2022/04/20 13:13:07;;;;;;;4.23;3.90;;;17.90;94.80;;;;;;5085686;28;20657;-74
2022/04/20 13:15:34;;;;;;;5.43;4.17;;;18.00;96.80;;;;;;5090794;28;20184;-74
2022/04/20 13:18:00;;;;;;;9.53;3.97;;;17.90;96.80;;;;;;5091048;28;20229;-74
2022/04/20 13:20:28;;;;;;;4.60;3.70;;;17.90;97.40;;;;;;5091584;28;20227;-74
2022/04/20 13:22:58;;;;;;;4.57;4.20;;;18.00;98.80;;;;;;5093672;28;20232;-74
2022/04/20 13:28:08;;;;;;;5.00;4.30;;;17.80;98.60;;;;;;5095312;28;20257;-75
2022/04/20 13:30:36;;;;;;;5.53;4.57;;;17.60;97.80;;;;;;5089721;28;20634;-74
2022/04/20 13:33:06;;;;;;;9.23;4.60;;;18.10;99.10;;;;;;5094769;28;20176;-74